Terminal Aerodrome Forecast
Issued by NWS Birmingham, AL

Home | Current Version | Previous Version | Text Only | Print | Product List | Glossary On
Versions: 1 2 3 4 5 6 7 8 9 10 11 12 13
000
FTUS44 KBMX 301100
TAFBHM
TAF
KBHM 301129Z 3012/3112 35010KT P6SM BKN035
     FM301500 36010G17KT P6SM SCT035 BKN250
     FM310000 01003KT P6SM BKN250=

USA.gov is the U.S. government's official web portal to all federal, state and local government web resources and services.